sensor_id;sensor_type;location;lat;lon;timestamp;temperature;humidity
22081;DHT22;11207;59.512;18.050;2023-04-25T00:01:56;4.50;99.90
22081;DHT22;11207;59.512;18.050;2023-04-25T00:04:22;4.40;99.90
22081;DHT22;11207;59.512;18.050;2023-04-25T00:06:48;4.40;99.90
22081;DHT22;11207;59.512;18.050;2023-04-25T00:09:14;4.40;99.90
22081;DHT22;11207;59.512;18.050;2023-04-25T00:11:40;4.40;99.90
22081;DHT22;11207;59.512;18.050;2023-04-25T00:14:06;4.40;99.90
22081;DHT22;11207;59.512;18.050;2023-04-25T00:16:32;4.30;99.90
22081;DHT22;11207;59.512;18.050;2023-04-25T00:19:01;4.30;99.90
22081;DHT22;11207;59.512;18.050;2023-04-25T00:21:27;4.20;99.90
22081;DHT22;11207;59.512;18.050;2023-04-25T00:23:54;4.30;99.90
22081;DHT22;11207;59.512;18.050;2023-04-25T00:26:21;4.30;99.90
22081;DHT22;11207;59.512;18.050;2023-04-25T00:28:47;4.50;99.90
22081;DHT22;11207;59.512;18.050;2023-04-25T00:31:13;4.30;99.90
22081;DHT22;11207;59.512;18.050;2023-04-25T00:33:39;4.50;99.90
22081;DHT22;11207;59.512;18.050;2023-04-25T00:36:05;4.30;99.90
22081;DHT22;11207;59.512;18.050;2023-04-25T00:38:31;4.30;99.90
22081;DHT22;11207;59.512;18.050;2023-04-25T00:40:57;4.30;99.90
22081;DHT22;11207;59.512;18.050;2023-04-25T00:43:27;4.30;99.90
22081;DHT22;11207;59.512;18.050;2023-04-25T00:45:53;4.20;99.90
22081;DHT22;11207;59.512;18.050;2023-04-25T00:48:23;4.20;99.90
22081;DHT22;11207;59.512;18.050;2023-04-25T00:50:52;4.10;99.90
22081;DHT22;11207;59.512;18.050;2023-04-25T00:53:44;4.20;99.90
22081;DHT22;11207;59.512;18.050;2023-04-25T00:56:10;4.10;99.90
22081;DHT22;11207;59.512;18.050;2023-04-25T00:58:36;4.10;99.90
22081;DHT22;11207;59.512;18.050;2023-04-25T01:01:02;4.00;99.90
22081;DHT22;11207;59.512;18.050;2023-04-25T01:03:28;4.00;99.90
22081;DHT22;11207;59.512;18.050;2023-04-25T01:05:55;4.00;99.90
22081;DHT22;11207;59.512;18.050;2023-04-25T01:08:23;4.10;99.90
22081;DHT22;11207;59.512;18.050;2023-04-25T01:10:50;4.10;99.90
22081;DHT22;11207;59.512;18.050;2023-04-25T01:13:16;4.10;99.90
22081;DHT22;11207;59.512;18.050;2023-04-25T01:15:42;4.00;99.90
22081;DHT22;11207;59.512;18.050;2023-04-25T01:18:07;4.00;99.90
22081;DHT22;11207;59.512;18.050;2023-04-25T01:20:34;4.00;99.90
22081;DHT22;11207;59.512;18.050;2023-04-25T01:23:05;4.00;99.90
22081;DHT22;11207;59.512;18.050;2023-04-25T01:25:31;4.00;99.90
22081;DHT22;11207;59.512;18.050;2023-04-25T01:27:58;4.10;99.90
22081;DHT22;11207;59.512;18.050;2023-04-25T01:30:26;4.00;99.90
22081;DHT22;11207;59.512;18.050;2023-04-25T01:32:54;3.80;99.90
22081;DHT22;11207;59.512;18.050;2023-04-25T01:35:20;3.90;99.90
22081;DHT22;11207;59.512;18.050;2023-04-25T01:37:45;3.80;99.90
22081;DHT22;11207;59.512;18.050;2023-04-25T01:40:12;3.80;99.90
22081;DHT22;11207;59.512;18.050;2023-04-25T01:42:40;3.80;99.90
22081;DHT22;11207;59.512;18.050;2023-04-25T01:45:07;3.80;99.90
22081;DHT22;11207;59.512;18.050;2023-04-25T01:47:33;3.80;99.90
22081;DHT22;11207;59.512;18.050;2023-04-25T01:50:01;3.70;99.90
22081;DHT22;11207;59.512;18.050;2023-04-25T01:52:27;3.70;99.90
22081;DHT22;11207;59.512;18.050;2023-04-25T01:54:53;3.70;99.90
22081;DHT22;11207;59.512;18.050;2023-04-25T02:00:11;3.60;99.90
22081;DHT22;11207;59.512;18.050;2023-04-25T02:02:37;3.50;99.90
22081;DHT22;11207;59.512;18.050;2023-04-25T02:05:03;3.50;99.90
22081;DHT22;11207;59.512;18.050;2023-04-25T02:07:29;3.50;99.90
22081;DHT22;11207;59.512;18.050;2023-04-25T02:09:54;3.50;99.90
22081;DHT22;11207;59.512;18.050;2023-04-25T02:12:20;3.50;99.90
22081;DHT22;11207;59.512;18.050;2023-04-25T02:14:46;3.60;99.90
22081;DHT22;11207;59.512;18.050;2023-04-25T02:17:11;3.50;99.90
22081;DHT22;11207;59.512;18.050;2023-04-25T02:19:38;3.50;99.90
22081;DHT22;11207;59.512;18.050;2023-04-25T02:22:04;3.50;99.90
22081;DHT22;11207;59.512;18.050;2023-04-25T02:24:29;3.60;99.90
22081;DHT22;11207;59.512;18.050;2023-04-25T02:26:55;3.60;99.90
22081;DHT22;11207;59.512;18.050;2023-04-25T02:29:21;3.50;99.90
22081;DHT22;11207;59.512;18.050;2023-04-25T02:31:47;3.60;99.90
22081;DHT22;11207;59.512;18.050;2023-04-25T02:34:12;3.50;99.90
22081;DHT22;11207;59.512;18.050;2023-04-25T02:36:38;3.50;99.90
22081;DHT22;11207;59.512;18.050;2023-04-25T02:39:22;3.50;99.90
22081;DHT22;11207;59.512;18.050;2023-04-25T02:41:50;3.50;99.90
22081;DHT22;11207;59.512;18.050;2023-04-25T02:44:16;3.50;99.90
22081;DHT22;11207;59.512;18.050;2023-04-25T02:46:41;3.50;99.90
22081;DHT22;11207;59.512;18.050;2023-04-25T02:49:07;3.50;99.90
22081;DHT22;11207;59.512;18.050;2023-04-25T02:51:32;3.50;99.90
22081;DHT22;11207;59.512;18.050;2023-04-25T02:53:58;3.60;99.90
22081;DHT22;11207;59.512;18.050;2023-04-25T02:56:24;3.60;99.90
22081;DHT22;11207;59.512;18.050;2023-04-25T02:58:51;3.60;99.90
22081;DHT22;11207;59.512;18.050;2023-04-25T03:01:17;3.50;99.90
22081;DHT22;11207;59.512;18.050;2023-04-25T03:03:42;3.50;99.90
22081;DHT22;11207;59.512;18.050;2023-04-25T03:06:08;3.50;99.90
22081;DHT22;11207;59.512;18.050;2023-04-25T03:08:34;3.50;99.90
22081;DHT22;11207;59.512;18.050;2023-04-25T03:11:00;3.60;99.90
22081;DHT22;11207;59.512;18.050;2023-04-25T03:13:26;3.60;99.90
22081;DHT22;11207;59.512;18.050;2023-04-25T03:18:27;3.50;99.90
22081;DHT22;11207;59.512;18.050;2023-04-25T03:20:53;3.60;99.90
22081;DHT22;11207;59.512;18.050;2023-04-25T03:26:28;3.60;99.90
22081;DHT22;11207;59.512;18.050;2023-04-25T03:28:54;3.60;99.90
22081;DHT22;11207;59.512;18.050;2023-04-25T03:31:20;3.70;99.90
22081;DHT22;11207;59.512;18.050;2023-04-25T03:33:45;3.60;99.90
22081;DHT22;11207;59.512;18.050;2023-04-25T03:36:11;3.60;99.90
22081;DHT22;11207;59.512;18.050;2023-04-25T03:38:37;3.60;99.90
22081;DHT22;11207;59.512;18.050;2023-04-25T03:41:02;3.60;99.90
22081;DHT22;11207;59.512;18.050;2023-04-25T03:43:28;3.60;99.90
22081;DHT22;11207;59.512;18.050;2023-04-25T03:49:16;3.70;99.90
22081;DHT22;11207;59.512;18.050;2023-04-25T03:51:41;3.60;99.90
22081;DHT22;11207;59.512;18.050;2023-04-25T03:54:07;3.60;99.90
22081;DHT22;11207;59.512;18.050;2023-04-25T03:56:33;3.60;99.90
22081;DHT22;11207;59.512;18.050;2023-04-25T03:58:58;3.60;99.90
22081;DHT22;11207;59.512;18.050;2023-04-25T04:01:24;3.60;99.90
22081;DHT22;11207;59.512;18.050;2023-04-25T04:03:50;3.70;99.90
22081;DHT22;11207;59.512;18.050;2023-04-25T04:06:16;3.70;99.90
22081;DHT22;11207;59.512;18.050;2023-04-25T04:08:42;3.60;99.90
22081;DHT22;11207;59.512;18.050;2023-04-25T04:11:11;3.70;99.90
22081;DHT22;11207;59.512;18.050;2023-04-25T04:13:36;3.70;99.90
22081;DHT22;11207;59.512;18.050;2023-04-25T04:16:03;3.70;99.90
22081;DHT22;11207;59.512;18.050;2023-04-25T04:18:29;3.70;99.90
22081;DHT22;11207;59.512;18.050;2023-04-25T04:20:55;3.70;99.90
22081;DHT22;11207;59.512;18.050;2023-04-25T04:23:23;3.60;99.90
22081;DHT22;11207;59.512;18.050;2023-04-25T04:25:49;3.80;99.90
22081;DHT22;11207;59.512;18.050;2023-04-25T04:28:15;3.80;99.90
22081;DHT22;11207;59.512;18.050;2023-04-25T04:31:08;3.80;99.90
22081;DHT22;11207;59.512;18.050;2023-04-25T04:33:34;3.90;99.90
22081;DHT22;11207;59.512;18.050;2023-04-25T04:36:00;3.80;99.90
22081;DHT22;11207;59.512;18.050;2023-04-25T04:38:26;3.90;99.90
22081;DHT22;11207;59.512;18.050;2023-04-25T04:40:51;4.00;99.90
22081;DHT22;11207;59.512;18.050;2023-04-25T04:43:24;4.00;99.90
22081;DHT22;11207;59.512;18.050;2023-04-25T04:45:50;3.80;99.90
22081;DHT22;11207;59.512;18.050;2023-04-25T04:48:16;4.00;99.90
22081;DHT22;11207;59.512;18.050;2023-04-25T04:50:44;3.90;99.90
22081;DHT22;11207;59.512;18.050;2023-04-25T04:53:12;3.90;99.90
22081;DHT22;11207;59.512;18.050;2023-04-25T04:55:59;4.10;99.90
22081;DHT22;11207;59.512;18.050;2023-04-25T04:58:24;4.00;99.90
22081;DHT22;11207;59.512;18.050;2023-04-25T05:00:50;4.00;99.90
22081;DHT22;11207;59.512;18.050;2023-04-25T05:03:16;4.00;99.90
22081;DHT22;11207;59.512;18.050;2023-04-25T05:05:42;4.00;99.90
22081;DHT22;11207;59.512;18.050;2023-04-25T05:08:11;4.00;99.90
22081;DHT22;11207;59.512;18.050;2023-04-25T05:10:36;4.10;99.90
22081;DHT22;11207;59.512;18.050;2023-04-25T05:13:02;4.10;99.90
22081;DHT22;11207;59.512;18.050;2023-04-25T05:15:28;4.10;99.90
22081;DHT22;11207;59.512;18.050;2023-04-25T05:17:54;4.10;99.90
22081;DHT22;11207;59.512;18.050;2023-04-25T05:20:19;4.00;99.90
22081;DHT22;11207;59.512;18.050;2023-04-25T05:22:45;3.90;99.90
22081;DHT22;11207;59.512;18.050;2023-04-25T05:25:11;4.10;99.90
22081;DHT22;11207;59.512;18.050;2023-04-25T05:27:37;4.10;99.90
22081;DHT22;11207;59.512;18.050;2023-04-25T05:30:05;4.20;99.90
22081;DHT22;11207;59.512;18.050;2023-04-25T05:32:31;4.10;99.90
22081;DHT22;11207;59.512;18.050;2023-04-25T05:34:57;4.10;99.90
22081;DHT22;11207;59.512;18.050;2023-04-25T05:37:22;4.20;99.90
22081;DHT22;11207;59.512;18.050;2023-04-25T05:39:48;4.20;99.90
22081;DHT22;11207;59.512;18.050;2023-04-25T05:42:13;4.20;99.90
22081;DHT22;11207;59.512;18.050;2023-04-25T05:44:39;4.20;99.90
22081;DHT22;11207;59.512;18.050;2023-04-25T05:47:05;4.20;99.90
22081;DHT22;11207;59.512;18.050;2023-04-25T05:49:30;4.30;99.90
22081;DHT22;11207;59.512;18.050;2023-04-25T05:51:56;4.20;99.90
22081;DHT22;11207;59.512;18.050;2023-04-25T05:54:22;4.30;99.90
22081;DHT22;11207;59.512;18.050;2023-04-25T05:56:48;4.30;99.90
22081;DHT22;11207;59.512;18.050;2023-04-25T05:59:14;4.30;99.90
22081;DHT22;11207;59.512;18.050;2023-04-25T06:01:40;4.50;99.90
22081;DHT22;11207;59.512;18.050;2023-04-25T06:04:05;4.40;99.90
22081;DHT22;11207;59.512;18.050;2023-04-25T06:06:31;4.40;99.90
22081;DHT22;11207;59.512;18.050;2023-04-25T06:09:00;4.50;99.90
22081;DHT22;11207;59.512;18.050;2023-04-25T06:11:26;4.50;99.90
22081;DHT22;11207;59.512;18.050;2023-04-25T06:13:51;4.50;99.90
22081;DHT22;11207;59.512;18.050;2023-04-25T06:16:17;4.60;99.90
22081;DHT22;11207;59.512;18.050;2023-04-25T06:18:42;4.50;99.90
22081;DHT22;11207;59.512;18.050;2023-04-25T06:21:08;4.60;99.90
22081;DHT22;11207;59.512;18.050;2023-04-25T06:23:34;4.70;99.90
22081;DHT22;11207;59.512;18.050;2023-04-25T06:25:59;4.60;99.90
22081;DHT22;11207;59.512;18.050;2023-04-25T06:28:25;4.70;99.90
22081;DHT22;11207;59.512;18.050;2023-04-25T06:30:51;4.70;99.90
22081;DHT22;11207;59.512;18.050;2023-04-25T06:33:16;4.80;99.90
22081;DHT22;11207;59.512;18.050;2023-04-25T06:35:43;4.80;99.90
22081;DHT22;11207;59.512;18.050;2023-04-25T06:38:09;4.80;99.90
22081;DHT22;11207;59.512;18.050;2023-04-25T06:40:35;4.80;99.90
22081;DHT22;11207;59.512;18.050;2023-04-25T06:43:01;4.80;99.90
22081;DHT22;11207;59.512;18.050;2023-04-25T06:45:26;4.80;99.90
22081;DHT22;11207;59.512;18.050;2023-04-25T06:47:55;4.70;99.90
22081;DHT22;11207;59.512;18.050;2023-04-25T06:50:25;4.80;99.90
22081;DHT22;11207;59.512;18.050;2023-04-25T06:52:51;4.90;99.90
22081;DHT22;11207;59.512;18.050;2023-04-25T06:55:16;4.80;99.90
22081;DHT22;11207;59.512;18.050;2023-04-25T06:57:42;4.80;99.90
22081;DHT22;11207;59.512;18.050;2023-04-25T07:00:09;4.80;99.90
22081;DHT22;11207;59.512;18.050;2023-04-25T07:02:37;4.90;99.90
22081;DHT22;11207;59.512;18.050;2023-04-25T07:05:03;4.90;99.90
22081;DHT22;11207;59.512;18.050;2023-04-25T07:07:30;4.90;99.90
22081;DHT22;11207;59.512;18.050;2023-04-25T07:09:56;4.90;99.90
22081;DHT22;11207;59.512;18.050;2023-04-25T07:12:21;4.90;99.90
22081;DHT22;11207;59.512;18.050;2023-04-25T07:14:53;4.90;99.90
22081;DHT22;11207;59.512;18.050;2023-04-25T07:17:19;4.90;99.90
22081;DHT22;11207;59.512;18.050;2023-04-25T07:19:47;4.90;99.90
22081;DHT22;11207;59.512;18.050;2023-04-25T07:22:12;5.00;99.90
22081;DHT22;11207;59.512;18.050;2023-04-25T07:24:38;5.10;99.90
22081;DHT22;11207;59.512;18.050;2023-04-25T07:27:04;5.10;99.90
22081;DHT22;11207;59.512;18.050;2023-04-25T07:29:30;5.20;99.90
22081;DHT22;11207;59.512;18.050;2023-04-25T07:31:56;5.20;99.90
22081;DHT22;11207;59.512;18.050;2023-04-25T07:34:23;5.30;99.90
22081;DHT22;11207;59.512;18.050;2023-04-25T07:36:49;5.30;99.90
22081;DHT22;11207;59.512;18.050;2023-04-25T07:39:14;5.40;99.90
22081;DHT22;11207;59.512;18.050;2023-04-25T07:41:40;5.40;99.90
22081;DHT22;11207;59.512;18.050;2023-04-25T07:44:06;5.40;99.90
22081;DHT22;11207;59.512;18.050;2023-04-25T07:46:32;5.50;99.90
22081;DHT22;11207;59.512;18.050;2023-04-25T07:48:57;5.50;99.90
22081;DHT22;11207;59.512;18.050;2023-04-25T07:51:23;5.50;99.90
22081;DHT22;11207;59.512;18.050;2023-04-25T07:53:48;5.60;99.90
22081;DHT22;11207;59.512;18.050;2023-04-25T07:56:14;5.60;99.90
22081;DHT22;11207;59.512;18.050;2023-04-25T07:58:40;5.60;99.90
22081;DHT22;11207;59.512;18.050;2023-04-25T08:01:06;5.60;99.90
22081;DHT22;11207;59.512;18.050;2023-04-25T08:03:32;5.60;99.90
22081;DHT22;11207;59.512;18.050;2023-04-25T08:05:57;5.70;99.90
22081;DHT22;11207;59.512;18.050;2023-04-25T08:08:23;5.80;99.90
22081;DHT22;11207;59.512;18.050;2023-04-25T08:10:50;5.80;99.90
22081;DHT22;11207;59.512;18.050;2023-04-25T08:13:17;5.90;99.90
22081;DHT22;11207;59.512;18.050;2023-04-25T08:15:44;6.00;99.90
22081;DHT22;11207;59.512;18.050;2023-04-25T08:18:10;6.00;99.90
22081;DHT22;11207;59.512;18.050;2023-04-25T08:20:35;6.10;99.90
22081;DHT22;11207;59.512;18.050;2023-04-25T08:23:01;6.10;99.90
22081;DHT22;11207;59.512;18.050;2023-04-25T08:25:30;6.20;99.90
22081;DHT22;11207;59.512;18.050;2023-04-25T08:27:55;6.30;99.90
22081;DHT22;11207;59.512;18.050;2023-04-25T08:30:22;6.20;99.90
22081;DHT22;11207;59.512;18.050;2023-04-25T08:32:48;6.30;99.90
22081;DHT22;11207;59.512;18.050;2023-04-25T08:35:13;6.30;99.90
22081;DHT22;11207;59.512;18.050;2023-04-25T08:37:39;6.50;99.90
22081;DHT22;11207;59.512;18.050;2023-04-25T08:40:05;6.40;99.90
22081;DHT22;11207;59.512;18.050;2023-04-25T08:42:33;6.50;99.90
22081;DHT22;11207;59.512;18.050;2023-04-25T08:45:04;6.50;99.90
22081;DHT22;11207;59.512;18.050;2023-04-25T08:47:32;6.60;99.90
22081;DHT22;11207;59.512;18.050;2023-04-25T08:49:59;6.70;99.90
22081;DHT22;11207;59.512;18.050;2023-04-25T08:52:30;6.80;99.90
22081;DHT22;11207;59.512;18.050;2023-04-25T08:54:57;6.60;99.90
22081;DHT22;11207;59.512;18.050;2023-04-25T08:57:24;6.60;99.90
22081;DHT22;11207;59.512;18.050;2023-04-25T08:59:51;6.70;99.90
22081;DHT22;11207;59.512;18.050;2023-04-25T09:02:19;6.80;99.90
22081;DHT22;11207;59.512;18.050;2023-04-25T09:04:46;6.70;99.90
22081;DHT22;11207;59.512;18.050;2023-04-25T09:07:15;6.70;99.90
22081;DHT22;11207;59.512;18.050;2023-04-25T09:09:47;6.90;99.90
22081;DHT22;11207;59.512;18.050;2023-04-25T09:12:18;7.00;99.90
22081;DHT22;11207;59.512;18.050;2023-04-25T09:17:29;6.90;99.90
22081;DHT22;11207;59.512;18.050;2023-04-25T09:19:55;6.90;99.90
22081;DHT22;11207;59.512;18.050;2023-04-25T09:22:30;7.00;99.90
22081;DHT22;11207;59.512;18.050;2023-04-25T09:24:56;7.10;99.90
22081;DHT22;11207;59.512;18.050;2023-04-25T09:27:22;7.20;99.90
22081;DHT22;11207;59.512;18.050;2023-04-25T09:29:58;7.30;99.90
22081;DHT22;11207;59.512;18.050;2023-04-25T09:32:27;7.50;99.90
22081;DHT22;11207;59.512;18.050;2023-04-25T09:34:54;7.50;99.90
22081;DHT22;11207;59.512;18.050;2023-04-25T09:37:22;7.20;99.90
22081;DHT22;11207;59.512;18.050;2023-04-25T09:39:53;7.40;99.90
22081;DHT22;11207;59.512;18.050;2023-04-25T09:42:22;7.60;99.90
22081;DHT22;11207;59.512;18.050;2023-04-25T09:44:51;7.60;99.90
22081;DHT22;11207;59.512;18.050;2023-04-25T09:47:17;7.40;99.90
22081;DHT22;11207;59.512;18.050;2023-04-25T09:49:43;7.20;99.90
22081;DHT22;11207;59.512;18.050;2023-04-25T09:52:14;7.30;99.90
22081;DHT22;11207;59.512;18.050;2023-04-25T09:54:40;7.60;99.90
22081;DHT22;11207;59.512;18.050;2023-04-25T09:57:14;7.50;99.90
22081;DHT22;11207;59.512;18.050;2023-04-25T09:59:47;7.40;99.90
22081;DHT22;11207;59.512;18.050;2023-04-25T10:02:19;7.50;99.90
22081;DHT22;11207;59.512;18.050;2023-04-25T10:04:49;7.50;99.90
22081;DHT22;11207;59.512;18.050;2023-04-25T10:07:18;7.50;99.90
22081;DHT22;11207;59.512;18.050;2023-04-25T10:09:47;7.80;99.90
22081;DHT22;11207;59.512;18.050;2023-04-25T10:12:13;7.80;99.90
22081;DHT22;11207;59.512;18.050;2023-04-25T10:14:39;8.00;99.90
22081;DHT22;11207;59.512;18.050;2023-04-25T10:17:05;8.10;99.90
22081;DHT22;11207;59.512;18.050;2023-04-25T10:19:32;8.30;99.90
22081;DHT22;11207;59.512;18.050;2023-04-25T10:22:07;8.30;99.90
22081;DHT22;11207;59.512;18.050;2023-04-25T10:24:37;8.40;99.90
22081;DHT22;11207;59.512;18.050;2023-04-25T10:27:04;8.40;99.90
22081;DHT22;11207;59.512;18.050;2023-04-25T10:29:31;8.60;99.90
22081;DHT22;11207;59.512;18.050;2023-04-25T10:31:59;8.80;99.90
22081;DHT22;11207;59.512;18.050;2023-04-25T10:34:40;9.00;99.90
22081;DHT22;11207;59.512;18.050;2023-04-25T10:37:09;8.90;99.90
22081;DHT22;11207;59.512;18.050;2023-04-25T10:39:41;9.10;99.90
22081;DHT22;11207;59.512;18.050;2023-04-25T10:42:07;9.20;99.90
22081;DHT22;11207;59.512;18.050;2023-04-25T10:44:34;9.20;99.90
22081;DHT22;11207;59.512;18.050;2023-04-25T10:47:01;9.30;99.90
22081;DHT22;11207;59.512;18.050;2023-04-25T10:52:25;9.30;99.90
22081;DHT22;11207;59.512;18.050;2023-04-25T10:55:21;9.30;99.90
22081;DHT22;11207;59.512;18.050;2023-04-25T10:58:00;9.20;99.90
22081;DHT22;11207;59.512;18.050;2023-04-25T11:00:29;9.20;99.90
22081;DHT22;11207;59.512;18.050;2023-04-25T11:02:59;9.20;99.90
22081;DHT22;11207;59.512;18.050;2023-04-25T11:07:58;9.40;99.90
22081;DHT22;11207;59.512;18.050;2023-04-25T11:10:30;9.50;99.90
22081;DHT22;11207;59.512;18.050;2023-04-25T11:12:57;9.40;99.90
22081;DHT22;11207;59.512;18.050;2023-04-25T11:15:23;9.50;99.90
22081;DHT22;11207;59.512;18.050;2023-04-25T11:17:53;9.50;99.90
22081;DHT22;11207;59.512;18.050;2023-04-25T11:20:19;9.70;99.90
22081;DHT22;11207;59.512;18.050;2023-04-25T11:22:53;9.70;99.90
22081;DHT22;11207;59.512;18.050;2023-04-25T11:25:23;9.60;99.90
22081;DHT22;11207;59.512;18.050;2023-04-25T11:27:53;9.50;99.90
22081;DHT22;11207;59.512;18.050;2023-04-25T11:30:23;9.60;99.90
22081;DHT22;11207;59.512;18.050;2023-04-25T11:32:49;9.40;99.90
22081;DHT22;11207;59.512;18.050;2023-04-25T11:35:16;9.20;99.90
22081;DHT22;11207;59.512;18.050;2023-04-25T11:37:44;9.40;99.90
22081;DHT22;11207;59.512;18.050;2023-04-25T11:40:15;9.30;99.90
22081;DHT22;11207;59.512;18.050;2023-04-25T11:42:46;9.40;99.90
22081;DHT22;11207;59.512;18.050;2023-04-25T11:45:15;9.40;99.90
22081;DHT22;11207;59.512;18.050;2023-04-25T11:47:41;9.50;99.90
22081;DHT22;11207;59.512;18.050;2023-04-25T11:50:07;9.60;99.90
22081;DHT22;11207;59.512;18.050;2023-04-25T11:52:42;9.70;99.90
22081;DHT22;11207;59.512;18.050;2023-04-25T11:55:15;9.60;99.90
22081;DHT22;11207;59.512;18.050;2023-04-25T11:57:43;9.60;99.90
22081;DHT22;11207;59.512;18.050;2023-04-25T12:00:27;9.70;99.90
22081;DHT22;11207;59.512;18.050;2023-04-25T12:02:55;9.80;99.90
22081;DHT22;11207;59.512;18.050;2023-04-25T12:05:25;9.90;99.90
22081;DHT22;11207;59.512;18.050;2023-04-25T12:07:51;10.00;99.90
22081;DHT22;11207;59.512;18.050;2023-04-25T12:10:18;10.00;99.90
22081;DHT22;11207;59.512;18.050;2023-04-25T12:12:46;10.00;99.90
22081;DHT22;11207;59.512;18.050;2023-04-25T12:15:16;9.90;99.90
22081;DHT22;11207;59.512;18.050;2023-04-25T12:17:49;10.00;99.90
22081;DHT22;11207;59.512;18.050;2023-04-25T12:20:23;10.00;99.90
22081;DHT22;11207;59.512;18.050;2023-04-25T12:22:49;9.80;99.90
22081;DHT22;11207;59.512;18.050;2023-04-25T12:25:35;9.90;99.90
22081;DHT22;11207;59.512;18.050;2023-04-25T12:31:02;10.00;99.90
22081;DHT22;11207;59.512;18.050;2023-04-25T12:33:35;9.80;99.90
22081;DHT22;11207;59.512;18.050;2023-04-25T12:36:04;9.80;99.90
22081;DHT22;11207;59.512;18.050;2023-04-25T12:38:40;9.60;99.90
22081;DHT22;11207;59.512;18.050;2023-04-25T12:41:15;9.70;99.90
22081;DHT22;11207;59.512;18.050;2023-04-25T12:43:41;9.70;99.90
22081;DHT22;11207;59.512;18.050;2023-04-25T12:46:07;9.80;99.90
22081;DHT22;11207;59.512;18.050;2023-04-25T12:48:32;9.90;99.90
22081;DHT22;11207;59.512;18.050;2023-04-25T12:50:58;9.90;99.90
22081;DHT22;11207;59.512;18.050;2023-04-25T12:53:24;9.80;99.90
22081;DHT22;11207;59.512;18.050;2023-04-25T12:55:50;9.90;99.90
22081;DHT22;11207;59.512;18.050;2023-04-25T12:58:18;9.80;99.90
22081;DHT22;11207;59.512;18.050;2023-04-25T13:00:45;9.80;99.90
22081;DHT22;11207;59.512;18.050;2023-04-25T13:03:11;9.80;99.90
22081;DHT22;11207;59.512;18.050;2023-04-25T13:05:42;9.80;99.90
22081;DHT22;11207;59.512;18.050;2023-04-25T13:08:08;9.70;99.90
22081;DHT22;11207;59.512;18.050;2023-04-25T13:10:34;9.60;99.90
22081;DHT22;11207;59.512;18.050;2023-04-25T13:13:04;9.70;99.90
22081;DHT22;11207;59.512;18.050;2023-04-25T13:15:30;9.70;99.90
22081;DHT22;11207;59.512;18.050;2023-04-25T13:17:58;9.70;99.90
22081;DHT22;11207;59.512;18.050;2023-04-25T13:20:27;9.60;99.90
22081;DHT22;11207;59.512;18.050;2023-04-25T13:23:00;9.50;99.90
22081;DHT22;11207;59.512;18.050;2023-04-25T13:25:35;9.50;99.90
22081;DHT22;11207;59.512;18.050;2023-04-25T13:28:01;9.60;99.90
22081;DHT22;11207;59.512;18.050;2023-04-25T13:30:30;9.50;99.90
22081;DHT22;11207;59.512;18.050;2023-04-25T13:32:55;9.70;99.90
22081;DHT22;11207;59.512;18.050;2023-04-25T13:35:33;9.50;99.90
22081;DHT22;11207;59.512;18.050;2023-04-25T13:37:59;9.60;99.90
22081;DHT22;11207;59.512;18.050;2023-04-25T13:40:26;9.60;99.90
22081;DHT22;11207;59.512;18.050;2023-04-25T13:42:52;9.60;99.90
22081;DHT22;11207;59.512;18.050;2023-04-25T13:45:19;9.70;99.90
22081;DHT22;11207;59.512;18.050;2023-04-25T13:47:53;9.70;99.90
22081;DHT22;11207;59.512;18.050;2023-04-25T13:50:21;9.70;99.90
22081;DHT22;11207;59.512;18.050;2023-04-25T13:52:54;9.70;99.90
22081;DHT22;11207;59.512;18.050;2023-04-25T13:55:20;9.70;99.90
22081;DHT22;11207;59.512;18.050;2023-04-25T13:57:54;9.70;99.90
22081;DHT22;11207;59.512;18.050;2023-04-25T14:00:20;9.80;99.90
22081;DHT22;11207;59.512;18.050;2023-04-25T14:02:46;9.80;99.90
22081;DHT22;11207;59.512;18.050;2023-04-25T14:05:14;9.80;99.90
22081;DHT22;11207;59.512;18.050;2023-04-25T14:07:43;9.60;99.90
22081;DHT22;11207;59.512;18.050;2023-04-25T14:10:09;9.70;99.90
22081;DHT22;11207;59.512;18.050;2023-04-25T14:12:38;9.60;99.90
22081;DHT22;11207;59.512;18.050;2023-04-25T14:15:04;9.60;99.90
22081;DHT22;11207;59.512;18.050;2023-04-25T14:17:30;9.60;99.90
22081;DHT22;11207;59.512;18.050;2023-04-25T14:19:56;9.60;99.90
22081;DHT22;11207;59.512;18.050;2023-04-25T14:22:21;9.50;99.90
22081;DHT22;11207;59.512;18.050;2023-04-25T14:24:47;9.50;99.90
22081;DHT22;11207;59.512;18.050;2023-04-25T14:27:15;9.70;99.90
22081;DHT22;11207;59.512;18.050;2023-04-25T14:29:44;9.70;99.90
22081;DHT22;11207;59.512;18.050;2023-04-25T14:32:09;9.90;99.90
22081;DHT22;11207;59.512;18.050;2023-04-25T14:34:44;10.00;99.90
22081;DHT22;11207;59.512;18.050;2023-04-25T14:37:13;10.00;99.90
22081;DHT22;11207;59.512;18.050;2023-04-25T14:39:41;10.20;99.90
22081;DHT22;11207;59.512;18.050;2023-04-25T14:42:07;10.30;99.90
22081;DHT22;11207;59.512;18.050;2023-04-25T14:44:35;10.30;99.90
22081;DHT22;11207;59.512;18.050;2023-04-25T14:47:00;10.40;99.90
22081;DHT22;11207;59.512;18.050;2023-04-25T14:49:27;10.20;99.90
22081;DHT22;11207;59.512;18.050;2023-04-25T14:51:58;10.20;99.90
22081;DHT22;11207;59.512;18.050;2023-04-25T14:54:23;10.30;99.90
22081;DHT22;11207;59.512;18.050;2023-04-25T14:56:54;10.30;99.90
22081;DHT22;11207;59.512;18.050;2023-04-25T14:59:23;10.30;99.90
22081;DHT22;11207;59.512;18.050;2023-04-25T15:01:49;10.40;99.90
22081;DHT22;11207;59.512;18.050;2023-04-25T15:04:15;10.30;99.90
22081;DHT22;11207;59.512;18.050;2023-04-25T15:06:42;10.20;99.90
22081;DHT22;11207;59.512;18.050;2023-04-25T15:09:11;10.10;99.90
22081;DHT22;11207;59.512;18.050;2023-04-25T15:11:39;10.20;99.90
22081;DHT22;11207;59.512;18.050;2023-04-25T15:14:05;10.00;99.90
22081;DHT22;11207;59.512;18.050;2023-04-25T15:16:31;10.10;99.90
22081;DHT22;11207;59.512;18.050;2023-04-25T15:18:56;10.20;99.90
22081;DHT22;11207;59.512;18.050;2023-04-25T15:21:25;10.10;99.90
22081;DHT22;11207;59.512;18.050;2023-04-25T15:23:53;10.20;99.90
22081;DHT22;11207;59.512;18.050;2023-04-25T15:26:22;10.20;99.90
22081;DHT22;11207;59.512;18.050;2023-04-25T15:28:47;10.30;99.90
22081;DHT22;11207;59.512;18.050;2023-04-25T15:31:14;10.40;99.90
22081;DHT22;11207;59.512;18.050;2023-04-25T15:33:39;10.40;99.90
22081;DHT22;11207;59.512;18.050;2023-04-25T15:36:05;10.60;99.90
22081;DHT22;11207;59.512;18.050;2023-04-25T15:38:32;10.60;99.90
22081;DHT22;11207;59.512;18.050;2023-04-25T15:51:36;10.50;99.90
22081;DHT22;11207;59.512;18.050;2023-04-25T16:00:22;10.50;99.90
22081;DHT22;11207;59.512;18.050;2023-04-25T16:08:42;10.60;99.90
22081;DHT22;11207;59.512;18.050;2023-04-25T16:11:31;10.60;99.90
22081;DHT22;11207;59.512;18.050;2023-04-25T16:13:57;10.60;99.90
22081;DHT22;11207;59.512;18.050;2023-04-25T16:19:52;10.60;99.90
22081;DHT22;11207;59.512;18.050;2023-04-25T16:22:18;10.60;99.90